Portada
METAR-TAF:

METAR-TAF

Aeroports :

Aeroport de Moulay Ali Cherif

Rachidia, Marroc

latitud: 31-56N, longitud: 004-24W, altitud: 1034 m

Observació

L'informe es va fer fa 18 minuts, a les 13:00 UTC
Vent 5 kt amb direcció variable
Temperatura 32°C
Humitat 23%
Pressió 1015 hPa
Visibilitat: 4000 m
calitja

METAR: GMFK 301300Z VRB05KT 4000 HZ NSC 32/08 Q1015 NOSIG

Hora: 14:18 (13:18 UTC)

Pronòstic

L'informe es va fer fa 2 hores i 18 minuts, a les 11:00 UTC
Pronòstic vàlid del 30 a les 12 UTC al 31 a les 18 UTC
Vent 9 kt del Sud
Visibilitat: 4500 m
calitja
Probabilitat 30%
l' 30 a les 12 UTC al 30 a les 18 UTC
Visibilitat: 6000 m
Probabilitat 30% :
Temporalment
l' 30 a les 16 UTC al 30 a les 18 UTC
Vent 20 kt del Sud-Oest amb ràfegues de 30 kt
Núvols disperses a una alçada de 3000 ft
Escasses núvols a una alçada de 4000 ft, Cumulonimbus.
tempesta

TAF: GMFK 301100Z 3012/3118 18009KT 4500 HZ NSC PROB30 3012/3018 6000 NSW PROB30 TEMPO 3016/3018 22020G30KT TS SCT030 FEW040CB

Observacions i pronòstics meteorològics de més de 4000 aeroports (METAR i TAF).

Les estacions disponibles són els punts grocs i vermells al mapa.

Posi el ratolí al punt desitjat per veure el nom de l'estació.

Feu clic per veure les observacions i els pronòstics meteorològics.

Per canviar el mapa: feu clic els botons verds amb una creu de color negre per apropar; al botó verd amb un guió per allunyar la imatge; o en les fletxes verdes per a mapes adjacents.


METAR-TAF: